createdAt,value
2016-06-09T00:00:24.595Z,0
2016-06-09T00:01:24.489Z,0
2016-06-09T00:02:24.508Z,0
2016-06-09T00:03:24.698Z,0
2016-06-09T00:04:24.717Z,0
2016-06-09T00:05:24.767Z,0
2016-06-09T00:06:24.786Z,0
2016-06-09T00:07:24.820Z,0
2016-06-09T00:08:24.871Z,0
2016-06-09T00:09:24.748Z,0
2016-06-09T00:10:24.955Z,0
2016-06-09T00:11:24.972Z,0
2016-06-09T00:12:25.007Z,0
2016-06-09T00:13:25.041Z,0
2016-06-09T00:14:25.075Z,0
2016-06-09T00:15:25.109Z,0
2016-06-09T00:16:25.144Z,0
2016-06-09T00:17:25.195Z,0
2016-06-09T00:18:25.431Z,0
2016-06-09T00:19:25.576Z,0
2016-06-09T00:20:25.297Z,0
2016-06-09T00:21:25.332Z,0
2016-06-09T00:22:25.366Z,0
2016-06-09T00:23:25.417Z,0
2016-06-09T00:24:25.278Z,0
2016-06-09T00:25:25.469Z,0
2016-06-09T00:26:25.519Z,0
2016-06-09T00:27:25.538Z,0
2016-06-09T00:28:25.588Z,0
2016-06-09T00:29:25.621Z,0
2016-06-09T00:30:25.656Z,0
2016-06-09T00:31:25.691Z,0
2016-06-09T00:32:25.725Z,0
2016-06-09T00:33:26.165Z,0
2016-06-09T00:34:25.793Z,0
2016-06-09T00:35:25.829Z,0
2016-06-09T00:36:25.878Z,0
2016-06-09T00:37:25.896Z,0
2016-06-09T00:38:25.947Z,0
2016-06-09T00:39:25.996Z,0
2016-06-09T00:40:26.015Z,0
2016-06-09T00:41:26.050Z,0
2016-06-09T00:42:26.100Z,0
2016-06-09T00:43:26.117Z,0
2016-06-09T00:44:26.153Z,0
2016-06-09T00:45:26.186Z,0
2016-06-09T00:46:26.237Z,0
2016-06-09T00:47:26.255Z,0
2016-06-09T00:48:26.305Z,0
2016-06-09T00:49:26.246Z,0
2016-06-09T00:50:26.374Z,0
2016-06-09T00:51:26.409Z,0
2016-06-09T00:52:26.442Z,0
2016-06-09T00:53:26.493Z,0
2016-06-09T00:54:26.512Z,0
2016-06-09T00:55:26.545Z,0
2016-06-09T00:56:26.579Z,0
2016-06-09T00:57:26.614Z,0
2016-06-09T00:58:26.649Z,0
2016-06-09T00:59:26.699Z,0
2016-06-09T01:00:26.733Z,0
2016-06-09T01:01:26.767Z,0
2016-06-09T01:02:26.801Z,0
2016-06-09T01:03:27.070Z,0
2016-06-09T01:04:27.339Z,0
2016-06-09T01:05:26.905Z,0
2016-06-09T01:06:26.938Z,0
2016-06-09T01:07:26.973Z,0
2016-06-09T01:08:26.866Z,0
2016-06-09T01:09:27.042Z,0
2016-06-09T01:10:27.092Z,0
2016-06-09T01:11:27.126Z,0
2016-06-09T01:12:27.160Z,0
2016-06-09T01:13:27.195Z,0
2016-06-09T01:14:27.229Z,0
2016-06-09T01:15:27.263Z,0
2016-06-09T01:16:27.313Z,0
2016-06-09T01:17:27.332Z,0
2016-06-09T01:18:27.851Z,0
2016-06-09T01:19:27.994Z,0
2016-06-09T01:20:27.466Z,0
2016-06-09T01:21:27.313Z,0
2016-06-09T01:22:27.520Z,0
2016-06-09T01:23:27.537Z,0
2016-06-09T01:24:27.572Z,0
2016-06-09T01:25:27.607Z,0
2016-06-09T01:26:27.657Z,0
2016-06-09T01:27:27.690Z,0
2016-06-09T01:28:27.709Z,0
2016-06-09T01:29:27.760Z,0
2016-06-09T01:30:27.794Z,0
2016-06-09T01:31:27.828Z,0
2016-06-09T01:32:27.862Z,0
2016-06-09T01:33:27.757Z,0
2016-06-09T01:34:28.243Z,0
2016-06-09T01:35:27.965Z,0
2016-06-09T01:36:27.844Z,0
2016-06-09T01:37:28.033Z,0
2016-06-09T01:38:28.069Z,0
2016-06-09T01:39:28.118Z,0
2016-06-09T01:40:28.153Z,0
2016-06-09T01:41:28.187Z,0
2016-06-09T01:42:28.206Z,0
2016-06-09T01:43:28.271Z,0
2016-06-09T01:44:27.977Z,0
2016-06-09T01:45:28.309Z,0
2016-06-09T01:46:28.374Z,0
2016-06-09T01:47:28.393Z,0
2016-06-09T01:48:28.443Z,0
2016-06-09T01:49:28.478Z,0
2016-06-09T01:50:28.512Z,0
2016-06-09T01:51:28.530Z,0
2016-06-09T01:52:28.580Z,0
2016-06-09T01:53:28.599Z,0
2016-06-09T01:54:28.648Z,0
2016-06-09T01:55:28.667Z,0
2016-06-09T01:56:28.561Z,0
2016-06-09T01:57:28.752Z,0
2016-06-09T01:58:28.786Z,0
2016-06-09T01:59:28.821Z,0
2016-06-09T02:00:28.854Z,0
2016-06-09T02:01:28.889Z,0
2016-06-09T02:02:28.924Z,0
2016-06-09T02:03:30.224Z,0
2016-06-09T02:04:29.117Z,0
2016-06-09T02:05:29.027Z,0
2016-06-09T02:06:29.061Z,0
2016-06-09T02:07:29.095Z,0
2016-06-09T02:08:29.129Z,0
2016-06-09T02:09:29.179Z,0
2016-06-09T02:10:29.213Z,0
2016-06-09T02:11:29.263Z,0
2016-06-09T02:12:29.126Z,0
2016-06-09T02:13:29.317Z,0
2016-06-09T02:14:29.366Z,0
2016-06-09T02:15:29.386Z,0
2016-06-09T02:16:29.404Z,0
2016-06-09T02:17:29.454Z,0
2016-06-09T02:18:29.972Z,0
2016-06-09T02:19:29.382Z,0
2016-06-09T02:20:29.573Z,0
2016-06-09T02:21:29.590Z,0
2016-06-09T02:22:29.485Z,0
2016-06-09T02:23:29.660Z,0
2016-06-09T02:24:29.710Z,0
2016-06-09T02:25:29.744Z,0
2016-06-09T02:26:29.778Z,0
2016-06-09T02:27:29.812Z,0
2016-06-09T02:28:29.848Z,0
2016-06-09T02:29:29.882Z,0
2016-06-09T02:30:29.916Z,0
2016-06-09T02:31:29.950Z,0
2016-06-09T02:32:29.985Z,0
2016-06-09T02:33:30.019Z,0
2016-06-09T02:34:30.741Z,0
2016-06-09T02:35:30.087Z,0
2016-06-09T02:36:30.122Z,0
2016-06-09T02:37:30.187Z,0
2016-06-09T02:38:30.035Z,0
2016-06-09T02:39:30.224Z,0
2016-06-09T02:40:30.259Z,0
2016-06-09T02:41:30.294Z,0
2016-06-09T02:42:30.344Z,0
2016-06-09T02:43:30.377Z,0
2016-06-09T02:44:30.412Z,0
2016-06-09T02:45:30.445Z,0
2016-06-09T02:46:30.496Z,0
2016-06-09T02:47:30.515Z,0
2016-06-09T02:48:30.564Z,0
2016-06-09T02:49:30.912Z,0
2016-06-09T02:50:30.477Z,0
2016-06-09T02:51:30.652Z,4
2016-06-09T02:52:30.546Z,0
2016-06-09T02:53:30.720Z,0
2016-06-09T02:54:30.755Z,0
2016-06-09T02:55:30.790Z,0
2016-06-09T02:56:30.823Z,0
2016-06-09T02:57:30.701Z,0
2016-06-09T02:58:30.893Z,4
2016-06-09T02:59:30.786Z,4
2016-06-09T03:00:30.960Z,4
2016-06-09T03:01:30.995Z,4
2016-06-09T03:02:31.030Z,4
2016-06-09T03:03:30.923Z,4
2016-06-09T03:04:30.973Z,4
2016-06-09T03:05:31.149Z,4
2016-06-09T03:06:31.182Z,4
2016-06-09T03:07:31.248Z,4
2016-06-09T03:08:31.252Z,4
2016-06-09T03:09:31.286Z,4
2016-06-09T03:10:31.319Z,4
2016-06-09T03:11:31.386Z,4
2016-06-09T03:12:31.389Z,4
2016-06-09T03:13:31.439Z,4
2016-06-09T03:14:31.472Z,4
2016-06-09T03:15:31.351Z,4
2016-06-09T03:16:31.526Z,4
2016-06-09T03:17:31.435Z,4
2016-06-09T03:18:31.610Z,8
2016-06-09T03:19:32.050Z,8
2016-06-09T03:20:31.678Z,8
2016-06-09T03:21:31.713Z,4
2016-06-09T03:22:31.747Z,4
2016-06-09T03:23:31.781Z,4
2016-06-09T03:24:31.815Z,8
2016-06-09T03:25:31.851Z,8
2016-06-09T03:26:31.885Z,8
2016-06-09T03:27:31.918Z,8
2016-06-09T03:28:31.953Z,8
2016-06-09T03:29:32.003Z,8
2016-06-09T03:30:31.881Z,12
2016-06-09T03:31:32.072Z,8
2016-06-09T03:32:32.107Z,8
2016-06-09T03:33:32.140Z,12
2016-06-09T03:34:32.018Z,12
2016-06-09T03:35:32.210Z,12
2016-06-09T03:36:32.088Z,8
2016-06-09T03:37:32.262Z,12
2016-06-09T03:38:32.313Z,12
2016-06-09T03:39:32.347Z,12
2016-06-09T03:40:32.381Z,12
2016-06-09T03:41:32.414Z,12
2016-06-09T03:42:32.450Z,12
2016-06-09T03:43:32.499Z,16
2016-06-09T03:44:32.534Z,12
2016-06-09T03:45:32.552Z,16
2016-06-09T03:46:32.587Z,16
2016-06-09T03:47:32.636Z,16
2016-06-09T03:48:32.655Z,16
2016-06-09T03:49:32.722Z,16
2016-06-09T03:50:32.739Z,16
2016-06-09T03:51:32.773Z,16
2016-06-09T03:52:32.809Z,16
2016-06-09T03:53:32.843Z,20
2016-06-09T03:54:32.720Z,20
2016-06-09T03:55:32.911Z,28
2016-06-09T03:56:32.946Z,36
2016-06-09T03:57:32.980Z,40
2016-06-09T03:58:33.014Z,48
2016-06-09T03:59:33.064Z,52
2016-06-09T04:00:33.083Z,52
2016-06-09T04:01:33.117Z,52
2016-06-09T04:02:33.168Z,48
2016-06-09T04:03:33.202Z,44
2016-06-09T04:04:34.204Z,44
2016-06-09T04:05:33.271Z,48
2016-06-09T04:06:33.305Z,52
2016-06-09T04:07:33.339Z,48
2016-06-09T04:08:33.372Z,56
2016-06-09T04:09:33.251Z,56
2016-06-09T04:10:33.457Z,60
2016-06-09T04:11:33.476Z,72
2016-06-09T04:12:33.510Z,68
2016-06-09T04:13:33.545Z,72
2016-06-09T04:14:33.610Z,68
2016-06-09T04:15:33.614Z,72
2016-06-09T04:16:33.508Z,68
2016-06-09T04:17:33.697Z,72
2016-06-09T04:18:33.731Z,88
2016-06-09T04:19:34.251Z,104
2016-06-09T04:20:33.645Z,116
2016-06-09T04:21:33.834Z,140
2016-06-09T04:22:33.869Z,140
2016-06-09T04:23:33.919Z,156
2016-06-09T04:24:33.938Z,184
2016-06-09T04:25:33.972Z,212
2016-06-09T04:26:34.006Z,220
2016-06-09T04:27:34.041Z,232
2016-06-09T04:28:34.091Z,232
2016-06-09T04:29:34.110Z,268
2016-06-09T04:30:34.144Z,248
2016-06-09T04:31:34.194Z,272
2016-06-09T04:32:34.228Z,316
2016-06-09T04:33:34.263Z,348
2016-06-09T04:34:34.313Z,368
2016-06-09T04:35:34.018Z,392
2016-06-09T04:36:34.209Z,368
2016-06-09T04:37:34.400Z,352
2016-06-09T04:38:34.450Z,340
2016-06-09T04:39:34.468Z,308
2016-06-09T04:40:34.518Z,344
2016-06-09T04:41:34.537Z,344
2016-06-09T04:42:34.587Z,364
2016-06-09T04:43:34.622Z,352
2016-06-09T04:44:34.655Z,340
2016-06-09T04:45:34.689Z,308
2016-06-09T04:46:34.725Z,280
2016-06-09T04:47:34.759Z,240
2016-06-09T04:48:34.808Z,220
2016-06-09T04:49:35.312Z,208
2016-06-09T04:50:34.737Z,204
2016-06-09T04:51:34.927Z,204
2016-06-09T04:52:34.930Z,212
2016-06-09T04:53:34.980Z,224
2016-06-09T04:54:35.014Z,224
2016-06-09T04:55:35.049Z,228
2016-06-09T04:56:35.098Z,236
2016-06-09T04:57:35.134Z,200
2016-06-09T04:58:35.168Z,200
2016-06-09T04:59:35.201Z,200
2016-06-09T05:00:35.252Z,192
2016-06-09T05:01:35.271Z,176
2016-06-09T05:02:35.305Z,176
2016-06-09T05:03:35.370Z,188
2016-06-09T05:04:35.982Z,176
2016-06-09T05:05:35.408Z,172
2016-06-09T05:06:35.442Z,176
2016-06-09T05:07:35.492Z,164
2016-06-09T05:08:35.527Z,160
2016-06-09T05:09:35.560Z,152
2016-06-09T05:10:35.610Z,144
2016-06-09T05:11:35.630Z,144
2016-06-09T05:12:35.680Z,136
2016-06-09T05:13:35.697Z,144
2016-06-09T05:14:35.748Z,148
2016-06-09T05:15:35.626Z,156
2016-06-09T05:16:35.817Z,168
2016-06-09T05:17:35.851Z,188
2016-06-09T05:18:35.916Z,200
2016-06-09T05:19:36.607Z,192
2016-06-09T05:20:37.079Z,172
2016-06-09T05:21:35.988Z,156
2016-06-09T05:22:36.038Z,144
2016-06-09T05:23:36.072Z,132
2016-06-09T05:24:36.106Z,128
2016-06-09T05:25:36.142Z,116
2016-06-09T05:26:36.160Z,108
2016-06-09T05:27:36.210Z,104
2016-06-09T05:28:36.243Z,104
2016-06-09T05:29:36.122Z,104
2016-06-09T05:30:36.328Z,104
2016-06-09T05:31:36.347Z,112
2016-06-09T05:32:36.381Z,120
2016-06-09T05:33:36.275Z,128
2016-06-09T05:34:37.200Z,128
2016-06-09T05:35:36.516Z,124
2016-06-09T05:36:36.534Z,128
2016-06-09T05:37:36.568Z,128
2016-06-09T05:38:36.618Z,132
2016-06-09T05:39:36.653Z,140
2016-06-09T05:40:36.688Z,136
2016-06-09T05:41:36.566Z,128
2016-06-09T05:42:36.772Z,128
2016-06-09T05:43:36.649Z,132
2016-06-09T05:44:36.684Z,136
2016-06-09T05:45:36.858Z,148
2016-06-09T05:46:36.893Z,164
2016-06-09T05:47:36.927Z,184
2016-06-09T05:48:36.977Z,200
2016-06-09T05:49:37.465Z,208
2016-06-09T05:50:37.530Z,216
2016-06-09T05:51:37.080Z,240
2016-06-09T05:52:37.130Z,244
2016-06-09T05:53:37.148Z,228
2016-06-09T05:54:37.184Z,208
2016-06-09T05:55:37.234Z,192
2016-06-09T05:56:37.251Z,176
2016-06-09T05:57:37.302Z,168
2016-06-09T05:58:37.336Z,164
2016-06-09T05:59:37.214Z,172
2016-06-09T06:00:37.389Z,184
2016-06-09T06:01:37.440Z,188
2016-06-09T06:02:37.473Z,204
2016-06-09T06:03:37.509Z,216
2016-06-09T06:04:37.761Z,208
2016-06-09T06:05:37.592Z,196
2016-06-09T06:06:37.626Z,192
2016-06-09T06:07:37.660Z,180
2016-06-09T06:08:37.710Z,184
2016-06-09T06:09:37.714Z,192
2016-06-09T06:10:37.764Z,200
2016-06-09T06:11:37.798Z,208
2016-06-09T06:12:37.817Z,200
2016-06-09T06:13:37.867Z,192
2016-06-09T06:14:37.932Z,184
2016-06-09T06:15:37.935Z,176
2016-06-09T06:16:37.813Z,184
2016-06-09T06:17:38.004Z,200
2016-06-09T06:18:37.898Z,200
2016-06-09T06:19:38.104Z,188
2016-06-09T06:20:37.982Z,188
2016-06-09T06:21:38.001Z,196
2016-06-09T06:22:38.192Z,200
2016-06-09T06:23:38.929Z,208
2016-06-09T06:24:38.104Z,212
2016-06-09T06:25:38.294Z,220
2016-06-09T06:26:38.172Z,224
2016-06-09T06:27:38.363Z,232
2016-06-09T06:28:38.522Z,236
2016-06-09T06:29:38.292Z,248
2016-06-09T06:30:38.325Z,256
2016-06-09T06:31:38.531Z,268
2016-06-09T06:32:38.565Z,284
2016-06-09T06:33:40.460Z,316
2016-06-09T06:34:38.728Z,388
2016-06-09T06:35:38.810Z,528
2016-06-09T06:36:38.703Z,760
2016-06-09T06:37:38.738Z,1104
2016-06-09T06:38:38.772Z,1260
2016-06-09T06:39:38.822Z,1432
2016-06-09T06:40:38.840Z,1696
2016-06-09T06:41:38.875Z,1344
2016-06-09T06:42:38.909Z,1212
2016-06-09T06:43:39.710Z,984
2016-06-09T06:44:38.993Z,952
2016-06-09T06:45:39.043Z,1048
2016-06-09T06:46:39.061Z,988
2016-06-09T06:47:39.097Z,756
2016-06-09T06:48:39.147Z,540
2016-06-09T06:49:39.040Z,460
2016-06-09T06:50:39.246Z,512
2016-06-09T06:51:39.248Z,488
2016-06-09T06:52:39.284Z,496
2016-06-09T06:53:40.333Z,524
2016-06-09T06:54:39.368Z,504
2016-06-09T06:55:39.402Z,456
2016-06-09T06:56:39.452Z,428
2016-06-09T06:57:39.486Z,412
2016-06-09T06:58:40.599Z,372
2016-06-09T06:59:39.399Z,372
2016-06-09T07:00:39.589Z,396
2016-06-09T07:01:39.623Z,432
2016-06-09T07:02:39.674Z,432
2016-06-09T07:03:39.693Z,420
2016-06-09T07:04:39.741Z,428
2016-06-09T07:05:39.620Z,444
2016-06-09T07:06:39.795Z,448
2016-06-09T07:07:39.845Z,484
2016-06-09T07:08:42.161Z,508
2016-06-09T07:09:39.914Z,476
2016-06-09T07:10:39.980Z,432
2016-06-09T07:11:39.982Z,404
2016-06-09T07:12:40.032Z,384
2016-06-09T07:13:40.066Z,360
2016-06-09T07:14:39.961Z,356
2016-06-09T07:15:40.135Z,380
2016-06-09T07:16:40.170Z,388
2016-06-09T07:17:40.203Z,400
2016-06-09T07:18:40.114Z,428
2016-06-09T07:19:40.304Z,460
2016-06-09T07:20:40.416Z,472
2016-06-09T07:21:40.404Z,464
2016-06-09T07:22:40.391Z,484
2016-06-09T07:23:40.285Z,484
2016-06-09T07:24:40.460Z,464
2016-06-09T07:25:40.511Z,428
2016-06-09T07:26:40.545Z,420
2016-06-09T07:27:40.579Z,428
2016-06-09T07:28:41.269Z,428
2016-06-09T07:29:40.648Z,412
2016-06-09T07:30:40.682Z,408
2016-06-09T07:31:40.716Z,396
2016-06-09T07:32:40.766Z,380
2016-06-09T07:33:40.799Z,376
2016-06-09T07:34:41.366Z,372
2016-06-09T07:35:41.150Z,372
2016-06-09T07:36:40.919Z,372
2016-06-09T07:37:40.937Z,376
2016-06-09T07:38:41.471Z,392
2016-06-09T07:39:41.006Z,420
2016-06-09T07:40:41.056Z,440
2016-06-09T07:41:41.105Z,472
2016-06-09T07:42:41.125Z,468
2016-06-09T07:43:41.877Z,456
2016-06-09T07:44:41.194Z,448
2016-06-09T07:45:41.243Z,448
2016-06-09T07:46:41.278Z,472
2016-06-09T07:47:41.328Z,512
2016-06-09T07:48:41.065Z,556
2016-06-09T07:49:41.709Z,616
2016-06-09T07:50:42.430Z,656
2016-06-09T07:51:41.466Z,676
2016-06-09T07:52:41.499Z,652
2016-06-09T07:53:41.392Z,640
2016-06-09T07:54:41.552Z,632
2016-06-09T07:55:41.603Z,648
2016-06-09T07:56:41.637Z,672
2016-06-09T07:57:41.671Z,704
2016-06-09T07:58:41.704Z,732
2016-06-09T07:59:41.755Z,720
2016-06-09T08:00:41.805Z,732
2016-06-09T08:01:41.824Z,740
2016-06-09T08:02:41.858Z,736
2016-06-09T08:03:43.986Z,740
2016-06-09T08:04:41.942Z,760
2016-06-09T08:05:41.884Z,764
2016-06-09T08:06:42.011Z,780
2016-06-09T08:07:42.046Z,824
2016-06-09T08:08:44.549Z,956
2016-06-09T08:09:42.145Z,1132
2016-06-09T08:10:42.180Z,1156
2016-06-09T08:11:42.198Z,1248
2016-06-09T08:12:42.216Z,1360
2016-06-09T08:13:43.689Z,1480
2016-06-09T08:14:42.316Z,1488
2016-06-09T08:15:42.335Z,1456
2016-06-09T08:16:42.385Z,1432
2016-06-09T08:17:42.420Z,1348
2016-06-09T08:18:42.501Z,1224
2016-06-09T08:19:43.380Z,1148
2016-06-09T08:20:43.054Z,984
2016-06-09T08:21:42.573Z,876
2016-06-09T08:22:42.606Z,792
2016-06-09T08:23:42.485Z,776
2016-06-09T08:24:42.537Z,728
2016-06-09T08:25:42.770Z,708
2016-06-09T08:26:42.847Z,752
2016-06-09T08:27:42.939Z,732
2016-06-09T08:28:43.002Z,688
2016-06-09T08:29:43.077Z,676
2016-06-09T08:30:42.985Z,636
2016-06-09T08:31:43.192Z,588
2016-06-09T08:32:43.241Z,556
2016-06-09T08:33:43.306Z,508
2016-06-09T08:34:43.199Z,472
2016-06-09T08:35:44.021Z,452
2016-06-09T08:36:43.436Z,432
2016-06-09T08:37:43.475Z,432
2016-06-09T08:38:43.374Z,440
2016-06-09T08:39:43.429Z,424
2016-06-09T08:40:43.621Z,428
2016-06-09T08:41:43.643Z,444
2016-06-09T08:42:43.695Z,452
2016-06-09T08:43:43.778Z,468
2016-06-09T08:44:43.766Z,476
2016-06-09T08:45:43.801Z,476
2016-06-09T08:46:43.837Z,480
2016-06-09T08:47:43.872Z,496
2016-06-09T08:48:43.923Z,508
2016-06-09T08:49:43.958Z,512
2016-06-09T08:50:44.648Z,512
2016-06-09T08:51:44.026Z,516
2016-06-09T08:52:44.077Z,512
2016-06-09T08:53:44.113Z,504
2016-06-09T08:54:44.131Z,508
2016-06-09T08:55:44.198Z,516
2016-06-09T08:56:44.231Z,508
2016-06-09T08:57:44.266Z,508
2016-06-09T08:58:46.066Z,504
2016-06-09T08:59:44.349Z,496
2016-06-09T09:00:44.368Z,484
2016-06-09T09:01:44.262Z,468
2016-06-09T09:02:44.452Z,464
2016-06-09T09:03:45.080Z,460
2016-06-09T09:04:44.397Z,456
2016-06-09T09:05:44.837Z,452
2016-06-09T09:06:44.590Z,456
2016-06-09T09:07:44.640Z,468
2016-06-09T09:08:44.674Z,484
2016-06-09T09:09:44.708Z,500
2016-06-09T09:10:44.744Z,516
2016-06-09T09:11:44.793Z,532
2016-06-09T09:12:44.812Z,536
2016-06-09T09:13:44.862Z,528
2016-06-09T09:14:44.912Z,536
2016-06-09T09:15:44.773Z,540
2016-06-09T09:16:44.980Z,540
2016-06-09T09:17:44.999Z,552
2016-06-09T09:18:46.565Z,548
2016-06-09T09:19:45.083Z,540
2016-06-09T09:20:44.977Z,544
2016-06-09T09:21:45.167Z,532
2016-06-09T09:22:45.186Z,528
2016-06-09T09:23:45.236Z,524
2016-06-09T09:24:45.270Z,528
2016-06-09T09:25:45.320Z,544
2016-06-09T09:26:45.370Z,560
2016-06-09T09:27:45.374Z,556
2016-06-09T09:28:45.423Z,556
2016-06-09T09:29:45.457Z,544
2016-06-09T09:30:45.477Z,528
2016-06-09T09:31:45.541Z,504
2016-06-09T09:32:45.560Z,480
2016-06-09T09:33:45.595Z,472
2016-06-09T09:34:45.629Z,472
2016-06-09T09:35:46.992Z,488
2016-06-09T09:36:45.713Z,504
2016-06-09T09:37:45.749Z,532
2016-06-09T09:38:45.782Z,548
2016-06-09T09:39:45.832Z,544
2016-06-09T09:40:45.866Z,532
2016-06-09T09:41:45.901Z,524
2016-06-09T09:42:45.966Z,524
2016-06-09T09:43:45.970Z,512
2016-06-09T09:44:46.020Z,516
2016-06-09T09:45:46.038Z,528
2016-06-09T09:46:46.088Z,528
2016-06-09T09:47:46.121Z,528
2016-06-09T09:48:46.157Z,524
2016-06-09T09:49:46.191Z,528
2016-06-09T09:50:46.242Z,536
2016-06-09T09:51:46.260Z,540
2016-06-09T09:52:46.309Z,536
2016-06-09T09:53:46.187Z,536
2016-06-09T09:54:46.379Z,520
2016-06-09T09:55:46.413Z,492
2016-06-09T09:56:46.462Z,480
2016-06-09T09:57:46.497Z,472
2016-06-09T09:58:46.530Z,456
2016-06-09T09:59:46.581Z,448
2016-06-09T10:00:46.444Z,456
2016-06-09T10:01:46.650Z,472
2016-06-09T10:02:46.684Z,488
2016-06-09T10:03:46.718Z,492
2016-06-09T10:04:46.752Z,528
2016-06-09T10:05:47.271Z,596
2016-06-09T10:06:46.852Z,644
2016-06-09T10:07:46.871Z,616
2016-06-09T10:08:46.906Z,592
2016-06-09T10:09:46.939Z,604
2016-06-09T10:10:46.990Z,640
2016-06-09T10:11:47.009Z,656
2016-06-09T10:12:47.043Z,668
2016-06-09T10:13:47.093Z,696
2016-06-09T10:14:47.127Z,716
2016-06-09T10:15:47.193Z,724
2016-06-09T10:16:47.211Z,772
2016-06-09T10:17:47.261Z,768
2016-06-09T10:18:47.124Z,688
2016-06-09T10:19:47.330Z,660
2016-06-09T10:20:48.037Z,652
2016-06-09T10:21:47.836Z,656
2016-06-09T10:22:47.449Z,640
2016-06-09T10:23:47.468Z,624
2016-06-09T10:24:47.501Z,632
2016-06-09T10:25:47.535Z,612
2016-06-09T10:26:47.430Z,572
2016-06-09T10:27:47.620Z,528
2016-06-09T10:28:47.655Z,500
2016-06-09T10:29:47.704Z,480
2016-06-09T10:30:47.740Z,476
2016-06-09T10:31:47.773Z,488
2016-06-09T10:32:47.807Z,508
2016-06-09T10:33:47.841Z,556
2016-06-09T10:34:47.876Z,612
2016-06-09T10:35:48.755Z,648
2016-06-09T10:36:47.960Z,660
2016-06-09T10:37:47.994Z,684
2016-06-09T10:38:48.028Z,696
2016-06-09T10:39:48.079Z,684
2016-06-09T10:40:48.129Z,636
2016-06-09T10:41:48.148Z,592
2016-06-09T10:42:48.198Z,544
2016-06-09T10:43:48.216Z,528
2016-06-09T10:44:48.250Z,536
2016-06-09T10:45:48.145Z,548
2016-06-09T10:46:48.335Z,564
2016-06-09T10:47:48.197Z,564
2016-06-09T10:48:48.435Z,572
2016-06-09T10:49:48.453Z,568
2016-06-09T10:50:48.488Z,560
2016-06-09T10:51:48.522Z,588
2016-06-09T10:52:48.557Z,628
2016-06-09T10:53:48.435Z,652
2016-06-09T10:54:48.640Z,640
2016-06-09T10:55:48.659Z,636
2016-06-09T10:56:48.694Z,636
2016-06-09T10:57:48.744Z,640
2016-06-09T10:58:48.778Z,640
2016-06-09T10:59:48.813Z,644
2016-06-09T11:00:48.862Z,652
2016-06-09T11:02:06.725Z,652
2016-06-09T11:02:48.930Z,636
2016-06-09T11:03:48.950Z,628
2016-06-09T11:04:49.016Z,616
2016-06-09T11:05:48.736Z,612
2016-06-09T11:06:49.115Z,648
2016-06-09T11:07:48.962Z,648
2016-06-09T11:08:49.168Z,636
2016-06-09T11:09:49.031Z,624
2016-06-09T11:10:49.268Z,612
2016-06-09T11:11:49.255Z,628
2016-06-09T11:12:49.321Z,648
2016-06-09T11:13:49.043Z,684
2016-06-09T11:14:49.233Z,676
2016-06-09T11:15:49.424Z,632
2016-06-09T11:16:49.458Z,580
2016-06-09T11:17:49.492Z,548
2016-06-09T11:18:49.559Z,548
2016-06-09T11:19:49.561Z,584
2016-06-09T11:20:49.471Z,612
2016-06-09T11:21:50.146Z,644
2016-06-09T11:22:49.696Z,672
2016-06-09T11:23:49.714Z,676
2016-06-09T11:24:49.748Z,672
2016-06-09T11:25:50.001Z,692
2016-06-09T11:26:49.864Z,716
2016-06-09T11:27:49.868Z,736
2016-06-09T11:28:49.901Z,760
2016-06-09T11:29:49.796Z,740
2016-06-09T11:30:49.985Z,712
2016-06-09T11:31:50.019Z,696
2016-06-09T11:32:50.070Z,660
2016-06-09T11:33:50.089Z,632
2016-06-09T11:34:50.138Z,592
2016-06-09T11:35:51.345Z,560
2016-06-09T11:36:51.520Z,544
2016-06-09T11:37:50.273Z,548
2016-06-09T11:38:50.291Z,572
2016-06-09T11:39:50.326Z,596
2016-06-09T11:40:50.361Z,628
2016-06-09T11:41:50.394Z,644
2016-06-09T11:42:50.445Z,632
2016-06-09T11:43:50.479Z,612
2016-06-09T11:44:50.545Z,596
2016-06-09T11:45:50.563Z,584
2016-06-09T11:46:50.598Z,584
2016-06-09T11:47:50.663Z,576
2016-06-09T11:48:50.681Z,564
2016-06-09T11:49:50.716Z,548
2016-06-09T11:50:50.438Z,548
2016-06-09T11:51:51.722Z,536
2016-06-09T11:52:50.834Z,520
2016-06-09T11:53:50.713Z,528
2016-06-09T11:54:50.903Z,544
2016-06-09T11:55:50.938Z,568
2016-06-09T11:56:50.971Z,592
2016-06-09T11:57:51.007Z,632
2016-06-09T11:58:51.057Z,656
2016-06-09T11:59:51.090Z,652
2016-06-09T12:00:51.125Z,628
2016-06-09T12:01:51.159Z,600
2016-06-09T12:02:51.209Z,600
2016-06-09T12:03:51.243Z,592
2016-06-09T12:04:51.278Z,580
2016-06-09T12:05:51.312Z,584
2016-06-09T12:06:52.268Z,588
2016-06-09T12:07:51.380Z,612
2016-06-09T12:08:51.430Z,620
2016-06-09T12:09:51.465Z,604
2016-06-09T12:10:51.515Z,612
2016-06-09T12:11:51.549Z,640
2016-06-09T12:12:51.567Z,684
2016-06-09T12:13:51.617Z,720
2016-06-09T12:14:51.652Z,744
2016-06-09T12:15:51.530Z,760
2016-06-09T12:16:51.737Z,784
2016-06-09T12:17:51.786Z,812
2016-06-09T12:18:51.805Z,800
2016-06-09T12:19:51.855Z,728
2016-06-09T12:20:54.467Z,676
2016-06-09T12:21:52.455Z,700
2016-06-09T12:22:51.973Z,748
2016-06-09T12:23:52.009Z,780
2016-06-09T12:24:52.042Z,820
2016-06-09T12:25:52.077Z,900
2016-06-09T12:26:52.111Z,940
2016-06-09T12:27:52.160Z,960
2016-06-09T12:28:52.195Z,956
2016-06-09T12:29:52.230Z,920
2016-06-09T12:30:52.280Z,892
2016-06-09T12:31:52.298Z,936
2016-06-09T12:32:52.348Z,1032
2016-06-09T12:33:52.382Z,1140
2016-06-09T12:34:52.432Z,1264
2016-06-09T12:35:52.467Z,1328
2016-06-09T12:36:53.095Z,1236
2016-06-09T12:37:52.536Z,1160
2016-06-09T12:38:52.569Z,1096
2016-06-09T12:39:52.619Z,1000
2016-06-09T12:40:52.654Z,952
2016-06-09T12:41:52.704Z,992
2016-06-09T12:42:52.738Z,1076
2016-06-09T12:43:52.773Z,1108
2016-06-09T12:44:52.807Z,1056
2016-06-09T12:45:52.841Z,988
2016-06-09T12:46:52.875Z,944
2016-06-09T12:47:52.925Z,932
2016-06-09T12:48:52.960Z,936
2016-06-09T12:49:53.010Z,940
2016-06-09T12:50:53.435Z,932
2016-06-09T12:51:53.750Z,960
2016-06-09T12:52:53.112Z,984
2016-06-09T12:53:53.146Z,932
2016-06-09T12:54:53.197Z,904
2016-06-09T12:55:53.231Z,868
2016-06-09T12:56:53.266Z,816
2016-06-09T12:57:53.316Z,804
2016-06-09T12:58:53.350Z,828
2016-06-09T12:59:53.384Z,844
2016-06-09T13:00:53.434Z,928
2016-06-09T13:01:53.468Z,1028
2016-06-09T13:02:53.362Z,1108
2016-06-09T13:03:53.537Z,1120
2016-06-09T13:04:53.588Z,1128
2016-06-09T13:05:54.544Z,1132
2016-06-09T13:06:53.547Z,1132
2016-06-09T13:07:53.690Z,1136
2016-06-09T13:08:53.583Z,1120
2016-06-09T13:09:53.775Z,1068
2016-06-09T13:10:53.653Z,1028
2016-06-09T13:11:53.859Z,1040
2016-06-09T13:12:53.909Z,1076
2016-06-09T13:13:53.787Z,1152
2016-06-09T13:14:53.978Z,1296
2016-06-09T13:15:54.011Z,1324
2016-06-09T13:16:54.046Z,1332
2016-06-09T13:17:54.096Z,1320
2016-06-09T13:18:54.131Z,1280
2016-06-09T13:19:54.181Z,1276
2016-06-09T13:20:54.214Z,1184
2016-06-09T13:21:54.124Z,1172
2016-06-09T13:22:54.298Z,1272
2016-06-09T13:23:54.332Z,1336
2016-06-09T13:24:54.367Z,1272
2016-06-09T13:25:54.402Z,1300
2016-06-09T13:26:54.452Z,1364
2016-06-09T13:27:54.486Z,1272
2016-06-09T13:28:54.537Z,1232
2016-06-09T13:29:54.571Z,1220
2016-06-09T13:30:54.604Z,1212
2016-06-09T13:31:54.654Z,1076
2016-06-09T13:32:54.688Z,1008
2016-06-09T13:33:54.739Z,1252
2016-06-09T13:34:54.773Z,1280
2016-06-09T13:35:54.839Z,1220
2016-06-09T13:36:54.936Z,1180
2016-06-09T13:37:54.892Z,1320
2016-06-09T13:38:54.926Z,1296
2016-06-09T13:39:54.976Z,1188
2016-06-09T13:40:55.010Z,1140
2016-06-09T13:41:55.060Z,1076
2016-06-09T13:42:54.938Z,1044
2016-06-09T13:43:55.144Z,992
2016-06-09T13:44:55.178Z,984
2016-06-09T13:45:55.214Z,980
2016-06-09T13:46:55.264Z,960
2016-06-09T13:47:55.298Z,1000
2016-06-09T13:48:55.332Z,1060
2016-06-09T13:49:55.381Z,1020
2016-06-09T13:50:55.415Z,1048
2016-06-09T13:51:55.482Z,1096
2016-06-09T13:52:55.500Z,1080
2016-06-09T13:53:55.550Z,1448
2016-06-09T13:54:55.444Z,1080
2016-06-09T13:55:55.634Z,936
2016-06-09T13:56:55.670Z,1212
2016-06-09T13:57:55.704Z,1164
2016-06-09T13:58:55.738Z,1380
2016-06-09T13:59:55.788Z,1156